Time;durP1;ratioP1;P1;durP2;ratioP2;P2;SDS_P1;SDS_P2;PMS_P1;PMS_P2;Temp;Humidity;BMP_temperature;BMP_pressure;BME280_temperature;BME280_humidity;BME280_pressure;Samples;Min_cycle;Max_cycle;Signal;HPM_P1;HPM_P2
2021/01/29 00:00:35;;;;;;;1.17;0.87;;;7.00;99.90;;;7.58;76.88;93383.94;5029556;28;20190;-73
2021/01/29 00:03:05;;;;;;;1.37;1.23;;;6.80;99.90;;;7.55;77.07;93372.06;5003680;28;20188;-72
2021/01/29 00:05:42;;;;;;;1.20;0.80;;;6.80;99.90;;;7.45;77.23;93372.03;4993978;28;20179;-72
2021/01/29 00:08:09;;;;;;;1.33;0.90;;;6.70;99.90;;;7.28;76.69;93368.78;5023926;28;20187;-71
2021/01/29 00:10:36;;;;;;;1.17;0.90;;;6.60;99.90;;;7.26;76.24;93372.69;5004188;28;22892;-72
2021/01/29 00:13:10;;;;;;;1.40;1.10;;;6.50;99.90;;;7.19;76.98;93347.38;5006350;28;20675;-72
2021/01/29 00:15:37;;;;;;;2.63;1.67;;;6.40;99.90;;;7.13;77.47;93335.25;5017831;28;20183;-71
2021/01/29 00:18:06;;;;;;;3.57;1.50;;;6.30;99.90;;;7.03;76.76;93337.03;5010444;28;20178;-71
2021/01/29 00:20:32;;;;;;;2.23;1.50;;;6.30;99.90;;;6.90;76.59;93340.91;4987133;28;20179;-71
2021/01/29 00:22:58;;;;;;;1.73;1.63;;;6.10;99.90;;;6.85;77.04;93334.84;5019769;28;20193;-72
2021/01/29 00:25:34;;;;;;;2.33;1.87;;;6.10;99.90;;;6.75;77.07;93330.28;4999157;28;20293;-71
2021/01/29 00:28:01;;;;;;;2.07;1.87;;;6.10;99.90;;;6.69;77.13;93304.97;5010438;28;20693;-72
2021/01/29 00:30:28;;;;;;;1.90;1.70;;;6.00;99.90;;;6.61;76.65;93310.75;5013243;28;20223;-72
2021/01/29 00:32:55;;;;;;;2.10;1.90;;;5.90;99.90;;;6.54;76.65;93308.34;5016343;28;20230;-70
2021/01/29 00:35:27;;;;;;;2.00;1.80;;;5.80;99.90;;;6.53;76.73;93306.75;5007694;28;20186;-72
2021/01/29 00:37:54;;;;;;;2.57;2.03;;;5.80;99.90;;;6.54;77.12;93312.81;5008394;28;20239;-71
2021/01/29 00:40:20;;;;;;;2.37;1.90;;;5.80;99.90;;;6.52;76.69;93320.94;4984963;28;20605;-73
2021/01/29 00:42:50;;;;;;;2.30;2.10;;;5.80;99.90;;;6.46;77.06;93316.69;5028384;28;20187;-73
2021/01/29 00:45:29;;;;;;;2.90;2.00;;;5.70;99.90;;;6.38;77.27;93319.03;5029375;28;20176;-72
2021/01/29 00:47:56;;;;;;;1.87;1.67;;;5.60;99.90;;;6.35;77.59;93315.03;5010350;28;20190;-72
2021/01/29 00:50:27;;;;;;;2.47;2.10;;;5.60;99.90;;;6.46;76.78;93310.63;5025507;28;20187;-72
2021/01/29 00:52:53;;;;;;;2.83;2.30;;;5.60;99.90;;;6.43;77.16;93309.31;5009219;28;20212;-72
2021/01/29 00:55:23;;;;;;;2.77;2.20;;;5.60;99.90;;;6.45;76.82;93309.84;5019009;28;20184;-72
2021/01/29 00:57:52;;;;;;;3.47;2.20;;;5.70;99.90;;;6.43;76.61;93311.94;5008560;28;20180;-72
2021/01/29 01:00:19;;;;;;;2.23;2.03;;;5.60;99.90;;;6.39;76.97;93312.69;5003671;28;20231;-73
2021/01/29 01:02:46;;;;;;;3.30;2.43;;;5.60;99.90;;;6.43;77.11;93316.41;5026923;28;20588;-72
2021/01/29 01:05:15;;;;;;;2.53;2.13;;;5.60;99.90;;;6.41;77.26;93318.50;5013958;28;20181;-72
2021/01/29 01:07:41;;;;;;;4.27;3.00;;;5.60;99.90;;;6.37;76.82;93317.44;5006427;28;20659;-73
2021/01/29 01:10:10;;;;;;;3.67;2.63;;;5.60;99.90;;;6.40;76.60;93327.44;5026834;28;20206;-72
2021/01/29 01:12:36;;;;;;;3.17;2.53;;;5.60;99.90;;;6.36;77.51;93327.16;5018544;28;20255;-73
2021/01/29 01:15:27;;;;;;;3.17;2.30;;;5.60;99.90;;;6.42;76.74;93349.81;5019757;28;20715;-73
2021/01/29 01:18:02;;;;;;;3.57;2.50;;;5.70;99.90;;;6.34;77.80;93341.63;5025410;28;20265;-73
2021/01/29 01:20:32;;;;;;;3.03;2.30;;;5.60;99.90;;;6.30;77.49;93351.06;5014697;28;20178;-72
2021/01/29 01:23:01;;;;;;;2.77;2.53;;;5.60;99.90;;;6.29;77.57;93337.09;5018205;28;20187;-72
2021/01/29 01:25:29;;;;;;;4.53;2.53;;;5.60;99.90;;;6.24;76.97;93333.66;5029980;28;20183;-75
2021/01/29 01:27:57;;;;;;;4.57;3.00;;;5.60;99.90;;;6.24;77.80;93333.66;5013080;28;20196;-72
2021/01/29 01:30:30;;;;;;;4.27;3.40;;;5.50;99.90;;;6.33;76.64;93340.03;5002682;28;20217;-73
2021/01/29 01:32:58;;;;;;;3.60;2.73;;;5.50;99.90;;;6.37;77.45;93327.94;5023237;28;20293;-73
2021/01/29 01:35:25;;;;;;;4.07;2.40;;;5.60;99.90;;;6.42;77.44;93326.13;5015509;28;20188;-72
2021/01/29 01:37:51;;;;;;;3.33;2.30;;;5.60;99.90;;;6.44;77.67;93337.22;4996926;28;20180;-72
2021/01/29 01:40:25;;;;;;;4.40;2.60;;;5.70;99.90;;;6.38;76.82;93334.81;5028599;28;20182;-72
2021/01/29 01:42:54;;;;;;;2.87;2.50;;;5.60;99.90;;;6.38;77.19;93330.31;5011659;28;20225;-72
2021/01/29 01:45:29;;;;;;;3.27;2.70;;;5.60;99.90;;;6.36;77.56;93337.69;5021474;28;20499;-72
2021/01/29 01:48:27;;;;;;;3.93;2.70;;;5.60;99.90;;;6.38;77.39;93340.06;5028876;28;20270;-72
2021/01/29 01:50:53;;;;;;;3.43;2.43;;;5.60;99.90;;;6.28;76.82;93321.56;5018418;28;20718;-73
2021/01/29 01:53:32;;;;;;;4.17;2.90;;;5.50;99.90;;;6.16;76.69;93312.00;5013350;28;20303;-73
2021/01/29 01:56:34;;;;;;;5.47;2.83;;;5.50;99.90;;;6.11;76.94;93316.44;5000750;28;20182;-73
2021/01/29 01:59:05;;;;;;;5.37;3.20;;;5.40;99.90;;;6.12;77.44;93310.13;5023301;28;20199;-72
2021/01/29 02:01:34;;;;;;;3.70;2.77;;;5.40;99.90;;;6.36;77.44;93314.00;5012111;28;20182;-73
2021/01/29 02:04:00;;;;;;;2.60;1.97;;;5.50;99.90;;;6.62;77.02;93299.94;5018817;28;20543;-74
2021/01/29 02:06:29;;;;;;;2.77;2.00;;;5.60;99.90;;;6.74;77.89;93283.16;4998126;28;20179;-73
2021/01/29 02:09:06;;;;;;;1.70;1.50;;;5.70;99.90;;;6.95;77.60;93292.75;5012590;28;20182;-72
2021/01/29 02:11:32;;;;;;;2.60;1.77;;;5.90;99.90;;;6.95;77.26;93277.72;5029309;28;20206;-73
2021/01/29 02:13:58;;;;;;;1.93;1.27;;;5.90;99.90;;;7.13;76.82;93281.75;5031721;28;20729;-72
2021/01/29 02:17:01;;;;;;;1.27;1.10;;;6.10;99.90;;;7.32;77.88;93264.41;5010051;28;20192;-72
2021/01/29 02:20:21;;;;;;;1.07;0.73;;;6.20;99.90;;;7.46;78.02;93272.63;5018914;28;20586;-72
2021/01/29 02:23:26;;;;;;;1.07;0.90;;;6.30;99.90;;;7.48;77.64;93259.97;5031058;28;20198;-71
2021/01/29 02:26:45;;;;;;;1.73;1.20;;;6.40;99.90;;;7.45;77.28;93255.22;5022552;28;20187;-72
2021/01/29 02:29:30;;;;;;;1.40;1.30;;;6.40;99.90;;;7.42;77.19;93245.97;5031216;28;20293;-72
2021/01/29 02:32:36;;;;;;;2.13;1.10;;;6.40;99.90;;;7.42;77.78;93245.97;5027894;28;20241;-72
2021/01/29 02:35:20;;;;;;;2.50;1.10;;;6.40;99.90;;;7.46;77.32;93240.97;5028153;28;20199;-72
2021/01/29 02:38:24;;;;;;;2.20;1.00;;;6.40;99.90;;;7.45;77.89;93249.97;5032466;28;20199;-72
2021/01/29 02:41:27;;;;;;;2.03;1.10;;;6.40;99.90;;;7.45;78.05;93247.31;5013371;28;20187;-72
2021/01/29 02:43:58;;;;;;;1.60;0.83;;;6.40;99.90;;;7.45;77.85;93242.84;5023537;28;20183;-72
2021/01/29 02:46:50;;;;;;;1.00;0.90;;;6.40;99.90;;;7.35;77.85;93240.19;5028332;28;20257;-73
2021/01/29 02:49:34;;;;;;;2.40;1.13;;;6.40;99.90;;;7.22;78.30;93248.56;5013554;28;20557;-73
2021/01/29 02:52:42;;;;;;;1.20;0.80;;;6.30;99.90;;;7.25;77.88;93249.91;5032092;28;20180;-72
2021/01/29 02:55:22;;;;;;;1.23;0.87;;;6.30;99.90;;;7.26;77.84;93247.00;5011749;28;20226;-73
2021/01/29 02:58:20;;;;;;;1.10;0.90;;;6.30;99.90;;;7.30;78.26;93249.91;4996543;28;20277;-72
2021/01/29 03:00:52;;;;;;;1.63;1.00;;;6.30;99.90;;;7.24;78.09;93235.94;4983941;28;20609;-72
2021/01/29 03:04:06;;;;;;;1.43;0.93;;;6.20;99.90;;;7.22;78.00;93230.13;5020249;28;20190;-72
2021/01/29 03:06:52;;;;;;;1.33;1.00;;;6.20;99.90;;;7.22;78.15;93222.22;4959925;28;20194;-71
2021/01/29 03:09:43;;;;;;;3.03;1.10;;;6.20;99.90;;;7.13;78.06;93215.88;4966383;28;20180;-71
2021/01/29 03:12:36;;;;;;;1.10;0.97;;;6.10;99.90;;;7.10;78.00;93203.22;4968404;28;20189;-71
2021/01/29 03:15:29;;;;;;;1.80;1.10;;;6.10;99.90;;;7.11;77.82;93204.81;4938550;28;20199;-71
2021/01/29 03:18:03;;;;;;;2.23;0.80;;;6.10;99.90;;;7.02;77.96;93187.91;4969497;28;20267;-71
2021/01/29 03:20:42;;;;;;;1.20;0.73;;;6.10;99.90;;;7.06;78.07;93195.06;4970260;28;20189;-71
2021/01/29 03:23:21;;;;;;;1.23;0.67;;;6.10;99.90;;;7.13;78.00;93205.34;4965414;28;20540;-71
2021/01/29 03:25:55;;;;;;;0.70;0.60;;;6.10;99.90;;;7.04;77.73;93184.00;4969122;28;20276;-71
2021/01/29 03:28:29;;;;;;;1.17;0.60;;;6.10;99.90;;;7.06;77.64;93170.56;4970277;28;20190;-72
2021/01/29 03:30:59;;;;;;;0.50;0.47;;;6.10;99.90;;;7.13;77.74;93176.34;4949017;28;20727;-72
2021/01/29 03:33:29;;;;;;;1.77;0.50;;;6.10;99.90;;;7.16;77.71;93163.47;4944776;28;20860;-72
2021/01/29 03:36:03;;;;;;;1.80;0.47;;;6.10;99.90;;;7.16;77.80;93160.03;4953859;28;20226;-72
2021/01/29 03:38:37;;;;;;;1.17;0.50;;;6.10;99.90;;;7.18;78.24;93156.06;4952642;28;20283;-71
2021/01/29 03:41:19;;;;;;;2.03;0.40;;;6.10;99.90;;;7.17;78.05;93151.06;4936109;29;20931;-71
2021/01/29 03:44:33;;;;;;;0.43;0.30;;;6.10;99.90;;;7.13;77.69;93137.63;5014640;28;20574;-72
2021/01/29 03:47:13;;;;;;;4.53;0.50;;;6.10;99.90;;;7.09;78.46;93131.31;5009376;28;20623;-72
2021/01/29 03:49:51;;;;;;;0.60;0.20;;;6.10;99.90;;;7.10;78.82;93125.00;4996882;28;20230;-72
2021/01/29 03:52:43;;;;;;;0.97;0.40;;;6.10;99.90;;;7.12;78.03;93120.25;5026825;28;20190;-71
2021/01/29 03:55:45;;;;;;;1.13;0.40;;;6.10;99.90;;;7.07;77.88;93114.97;5007768;28;20211;-72
2021/01/29 03:58:57;;;;;;;0.90;0.40;;;6.10;99.90;;;6.98;77.76;93100.75;5006038;28;20724;-71
2021/01/29 04:02:02;;;;;;;0.60;0.30;;;6.10;99.90;;;6.96;78.37;93104.69;5025101;28;20218;-71
2021/01/29 04:04:58;;;;;;;1.23;0.50;;;6.10;99.90;;;6.88;78.23;93105.22;5027986;28;20800;-72
2021/01/29 04:07:39;;;;;;;2.37;0.63;;;6.00;99.90;;;6.87;77.81;93099.16;4969419;28;20197;-72
2021/01/29 04:10:10;;;;;;;1.60;0.40;;;6.00;99.90;;;6.79;78.10;93073.31;4969968;28;20275;-72
2021/01/29 04:13:03;;;;;;;0.97;0.60;;;5.90;99.90;;;6.72;78.33;93097.28;4966595;28;20287;-72
2021/01/29 04:15:46;;;;;;;0.50;0.40;;;5.80;99.90;;;6.74;78.17;93094.38;4965134;28;20193;-72
2021/01/29 04:18:38;;;;;;;1.40;0.43;;;5.80;99.90;;;6.68;77.65;93079.63;4953694;28;20278;-72
2021/01/29 04:21:42;;;;;;;0.47;0.43;;;5.80;99.90;;;6.67;78.42;93086.75;4968942;28;20203;-72
2021/01/29 04:25:09;;;;;;;1.27;0.40;;;5.80;99.90;;;6.69;78.06;93082.00;4945657;28;20183;-72
2021/01/29 04:27:45;;;;;;;1.17;0.40;;;5.80;99.90;;;6.81;77.99;93076.50;4937667;28;20189;-71
2021/01/29 04:30:18;;;;;;;0.70;0.30;;;5.80;99.90;;;6.85;78.02;93074.13;4956874;28;20362;-72
2021/01/29 04:32:51;;;;;;;0.70;0.30;;;5.90;99.90;;;6.77;78.05;93064.91;4957458;28;20272;-71
2021/01/29 04:35:21;;;;;;;0.67;0.37;;;5.80;99.90;;;6.77;78.17;93059.63;4950085;28;20204;-72
2021/01/29 04:38:11;;;;;;;0.60;0.40;;;5.90;99.90;;;6.68;77.80;93061.22;4924384;28;20191;-72
2021/01/29 04:40:49;;;;;;;0.70;0.63;;;5.80;99.90;;;6.66;78.69;93042.22;4961951;28;20188;-72
2021/01/29 04:44:05;;;;;;;1.17;0.90;;;5.80;99.90;;;6.61;78.71;93056.16;4936369;28;20267;-72
2021/01/29 04:47:05;;;;;;;1.23;0.40;;;5.80;99.90;;;6.68;78.59;93053.31;4956919;28;20188;-72
2021/01/29 04:50:06;;;;;;;0.57;0.50;;;5.80;99.90;;;6.68;77.95;93061.22;4952815;28;20201;-72
2021/01/29 04:52:48;;;;;;;1.00;0.50;;;5.90;99.90;;;6.72;78.05;93046.44;4953026;28;20209;-72
2021/01/29 04:55:41;;;;;;;1.13;0.50;;;5.90;99.90;;;6.69;78.03;93054.88;4924202;28;20568;-72
2021/01/29 04:58:49;;;;;;;1.23;0.50;;;5.90;99.90;;;6.77;77.91;93062.28;4975840;28;20208;-72
2021/01/29 05:02:10;;;;;;;0.50;0.33;;;5.90;99.90;;;6.78;78.43;93045.44;5045719;28;20286;-72
2021/01/29 05:04:57;;;;;;;0.63;0.40;;;5.90;99.90;;;6.80;78.73;93051.22;5047773;28;20666;-72
2021/01/29 05:08:19;;;;;;;1.57;0.50;;;5.90;99.90;;;6.84;78.24;93046.22;5043162;28;20584;-71
2021/01/29 05:11:11;;;;;;;0.97;0.60;;;6.00;99.90;;;6.78;78.05;93048.06;4956564;28;20200;-71
2021/01/29 05:14:13;;;;;;;0.87;0.20;;;5.90;99.90;;;6.83;79.01;93049.88;4971073;28;20227;-71
2021/01/29 05:16:58;;;;;;;3.40;0.53;;;6.00;99.90;;;6.80;78.23;93053.84;4989553;28;20226;-72
2021/01/29 05:19:49;;;;;;;0.80;0.50;;;5.90;99.90;;;6.68;78.21;93026.97;4991803;28;20202;-72
2021/01/29 05:22:21;;;;;;;0.30;0.30;;;5.90;99.90;;;6.68;78.67;93013.81;4977007;28;20569;-72
2021/01/29 05:25:32;;;;;;;0.67;0.50;;;5.90;99.90;;;6.66;77.79;93034.34;4973414;28;20216;-72
2021/01/29 05:28:46;;;;;;;0.50;0.40;;;5.80;99.90;;;6.63;78.81;93034.84;4910326;29;20250;-73
2021/01/29 05:31:26;;;;;;;0.90;0.50;;;5.80;99.90;;;6.62;77.91;93020.09;4910854;29;20229;-71
2021/01/29 05:34:29;;;;;;;0.70;0.60;;;5.80;99.90;;;6.71;78.39;93029.09;4906391;29;20254;-71
2021/01/29 05:37:44;;;;;;;1.83;0.50;;;5.80;99.90;;;6.79;77.80;93012.75;4925445;29;20196;-72
2021/01/29 05:40:42;;;;;;;1.80;0.73;;;5.80;99.90;;;6.76;78.29;93013.28;4893830;29;20192;-72
2021/01/29 05:43:55;;;;;;;0.97;0.53;;;5.80;99.90;;;6.86;78.89;93001.97;4894241;29;20507;-71
2021/01/29 05:46:41;;;;;;;0.93;0.60;;;5.90;99.90;;;6.86;78.37;93008.03;4923417;28;20737;-72
2021/01/29 05:49:20;;;;;;;1.10;0.50;;;5.90;99.90;;;6.88;78.70;93002.50;4950010;28;20282;-71
2021/01/29 05:52:43;;;;;;;0.43;0.43;;;5.90;99.90;;;6.90;78.53;92995.13;4952544;28;20697;-72
2021/01/29 05:55:31;;;;;;;0.43;0.43;;;5.90;99.90;;;6.98;78.62;92976.97;4961395;28;20286;-71
2021/01/29 05:58:02;;;;;;;1.03;0.60;;;5.90;99.90;;;7.09;78.41;92978.50;4954815;28;20231;-71
2021/01/29 06:01:11;;;;;;;1.73;0.50;;;6.00;99.90;;;7.17;79.18;92980.63;4982121;28;20195;-71
2021/01/29 06:03:54;;;;;;;0.30;0.30;;;6.10;99.90;;;7.28;78.52;92975.31;4986905;28;20214;-72
2021/01/29 06:06:48;;;;;;;1.63;0.43;;;6.20;99.90;;;7.25;79.21;92973.22;5011064;28;20204;-72
2021/01/29 06:09:27;;;;;;;0.30;0.30;;;6.20;99.90;;;7.20;78.69;92969.53;5016257;28;20215;-71
2021/01/29 06:12:30;;;;;;;2.10;0.57;;;6.20;99.90;;;7.17;78.17;92987.72;5015506;28;20183;-72
2021/01/29 06:15:33;;;;;;;0.90;0.50;;;6.20;99.90;;;7.10;79.07;92990.63;5020204;28;20300;-71
2021/01/29 06:18:28;;;;;;;0.60;0.50;;;6.20;99.90;;;7.21;78.85;92997.47;5019801;28;20186;-71
2021/01/29 06:21:25;;;;;;;0.60;0.60;;;6.30;99.90;;;7.19;79.36;93019.84;5022452;28;20248;-71
2021/01/29 06:24:21;;;;;;;1.63;0.60;;;6.20;99.90;;;7.25;78.65;93021.44;5021330;28;20188;-72
2021/01/29 06:27:06;;;;;;;1.90;0.63;;;6.20;99.90;;;7.24;78.99;93040.94;5020043;28;20181;-71
2021/01/29 06:29:53;;;;;;;1.03;0.60;;;6.30;99.90;;;7.17;79.47;93035.94;5027416;28;20205;-71
2021/01/29 06:32:38;;;;;;;2.20;0.67;;;6.20;99.90;;;7.02;79.04;93035.13;5002999;28;20179;-71
2021/01/29 06:35:16;;;;;;;1.63;0.70;;;6.10;99.90;;;7.20;78.99;93069.66;5022621;28;20206;-71
2021/01/29 06:38:30;;;;;;;1.20;0.70;;;6.10;99.90;;;7.22;79.10;93101.00;5006459;28;20179;-71
2021/01/29 06:41:55;;;;;;;0.80;0.50;;;6.10;99.90;;;7.33;79.17;93084.16;5015089;28;20189;-71
2021/01/29 06:45:04;;;;;;;0.40;0.40;;;6.20;99.90;;;7.40;78.74;93120.78;5015905;28;20187;-71
2021/01/29 06:47:59;;;;;;;1.33;0.63;;;6.30;99.90;;;7.50;79.73;93033.78;5022944;28;20187;-70
2021/01/29 06:50:37;;;;;;;1.30;0.50;;;6.40;99.90;;;7.54;78.82;93033.00;5012677;28;20190;-71
2021/01/29 06:53:33;;;;;;;0.50;0.30;;;6.40;99.90;;;7.60;78.82;93023.22;5026227;28;20433;-71
2021/01/29 06:56:39;;;;;;;3.80;1.40;;;6.40;99.90;;;7.53;79.14;93014.78;5005288;28;20186;-74
2021/01/29 06:59:35;;;;;;;2.30;0.67;;;6.50;99.90;;;7.51;78.78;93036.16;5009371;28;20212;-74
2021/01/29 07:02:26;;;;;;;0.50;0.40;;;6.40;99.90;;;7.52;79.63;93050.91;5022917;28;20220;-74
2021/01/29 07:05:35;;;;;;;0.40;0.40;;;6.40;99.90;;;7.54;79.06;93054.09;5019376;28;20270;-73
2021/01/29 07:08:40;;;;;;;0.30;0.20;;;6.40;99.90;;;7.68;79.21;93070.94;5025505;28;20183;-74
2021/01/29 07:11:47;;;;;;;0.10;0.10;;;6.50;99.90;;;7.76;78.83;93053.00;5005008;28;20182;-73
2021/01/29 07:14:43;;;;;;;0.10;0.03;;;6.60;99.90;;;7.69;79.57;93058.53;5016353;28;20229;-73
2021/01/29 07:17:43;;;;;;;0.10;0.10;;;6.50;99.90;;;7.66;78.97;93056.41;5016306;28;20197;-73
2021/01/29 07:20:25;;;;;;;0.07;0.00;;;6.50;99.90;;;7.69;79.01;93056.69;5022070;28;20224;-72
2021/01/29 07:23:14;;;;;;;0.00;0.00;;;6.50;99.90;;;7.68;78.63;93072.78;5020015;28;20178;-73
2021/01/29 07:26:06;;;;;;;0.10;0.10;;;6.50;99.90;;;7.69;79.39;93079.63;5023351;28;20192;-72
2021/01/29 07:28:55;;;;;;;0.10;0.10;;;6.60;99.90;;;7.90;79.45;93094.34;5027978;28;20215;-73
2021/01/29 07:31:49;;;;;;;0.10;0.07;;;6.70;99.90;;;7.83;78.74;93087.78;5023478;28;20226;-72
2021/01/29 07:34:42;;;;;;;0.00;0.00;;;6.70;99.90;;;7.93;78.86;93114.91;4986315;28;20220;-73
2021/01/29 07:37:13;;;;;;;0.10;0.10;;;6.80;99.90;;;8.04;79.54;93108.56;4986008;28;20188;-72
2021/01/29 07:40:29;;;;;;;0.00;0.00;;;6.90;99.90;;;7.99;79.53;93118.34;4964623;28;20276;-71
2021/01/29 07:43:25;;;;;;;0.00;0.00;;;6.90;99.90;;;7.93;79.00;93112.28;4905852;29;20198;-73
2021/01/29 07:46:22;;;;;;;0.00;0.00;;;6.80;99.90;;;7.86;78.52;93116.25;4926500;29;20199;-73
2021/01/29 07:49:15;;;;;;;0.10;0.10;;;6.70;99.90;;;7.92;78.76;93102.81;4923631;29;20197;-73
2021/01/29 07:52:04;;;;;;;0.30;0.10;;;6.80;99.90;;;8.18;79.13;93108.78;4923612;29;20532;-71
2021/01/29 07:55:14;;;;;;;0.13;0.00;;;7.00;99.90;;;8.21;78.98;93111.69;4905493;29;20212;-74
2021/01/29 07:58:18;;;;;;;0.00;0.00;;;7.00;99.90;;;8.25;78.54;93122.50;4880447;29;20215;-72
2021/01/29 08:01:02;;;;;;;0.40;0.00;;;7.10;99.90;;;8.15;79.00;93112.78;4859851;29;20233;-73
2021/01/29 08:04:16;;;;;;;0.10;0.10;;;7.00;99.90;;;8.22;79.02;93120.41;4856467;29;20199;-72
2021/01/29 08:06:52;;;;;;;0.10;0.00;;;7.10;99.90;;;8.24;78.75;93116.44;4839617;29;20204;-72
2021/01/29 08:09:35;;;;;;;0.80;0.00;;;7.10;99.90;;;8.23;78.97;93108.75;4854792;29;20219;-73
2021/01/29 08:12:16;;;;;;;0.10;0.00;;;7.10;99.90;;;8.31;78.98;93095.06;4839121;29;20216;-73
2021/01/29 08:15:17;;;;;;;0.00;0.00;;;7.20;99.90;;;8.34;78.79;93101.63;4833647;29;20226;-72
2021/01/29 08:18:24;;;;;;;0.20;0.10;;;7.20;99.90;;;8.50;79.04;93089.94;4840158;29;20390;-72
2021/01/29 08:21:25;;;;;;;0.10;0.10;;;7.40;99.90;;;8.52;78.12;93086.00;4862432;29;20201;-73
2021/01/29 08:24:45;;;;;;;0.10;0.10;;;7.40;99.90;;;8.64;78.69;93101.50;4868631;29;20206;-72
2021/01/29 08:28:01;;;;;;;0.20;0.10;;;7.50;99.90;;;8.72;78.40;93106.22;4856145;29;20251;-72
2021/01/29 08:30:48;;;;;;;0.10;0.10;;;7.60;99.90;;;8.74;78.56;93099.59;4869898;29;20261;-72
2021/01/29 08:33:58;;;;;;;0.10;0.00;;;7.60;99.90;;;8.77;78.15;93099.06;4880300;29;20235;-72
2021/01/29 08:36:47;;;;;;;0.00;0.00;;;7.60;99.90;;;8.82;77.95;93100.09;4937411;28;20195;-73
2021/01/29 08:39:43;;;;;;;0.20;0.00;;;7.70;99.90;;;8.81;78.36;93091.38;4967744;28;20181;-73
2021/01/29 08:42:28;;;;;;;0.00;0.00;;;7.80;99.90;;;8.78;78.09;93091.94;4968557;28;20183;-71
2021/01/29 08:45:06;;;;;;;0.50;0.20;;;7.70;99.90;;;8.84;77.93;93111.16;4969666;28;20185;-71
2021/01/29 08:47:54;;;;;;;1.40;0.10;;;7.70;99.90;;;8.78;78.08;93118.34;4972780;28;20190;-71
2021/01/29 08:50:42;;;;;;;0.93;0.10;;;7.70;99.90;;;8.80;77.91;93118.09;4969509;28;20331;-70
2021/01/29 08:54:03;;;;;;;0.10;0.00;;;7.70;99.90;;;8.72;77.86;93114.16;4963854;28;20208;-72
2021/01/29 08:56:54;;;;;;;0.10;0.10;;;7.70;99.90;;;8.72;77.92;93117.59;5006366;28;20190;-73
2021/01/29 08:59:30;;;;;;;1.30;0.03;;;7.70;99.90;;;8.70;77.60;93116.25;5017617;28;20262;-73
2021/01/29 09:02:33;;;;;;;1.30;0.00;;;7.70;99.90;;;8.64;78.06;93122.63;5011833;28;20178;-73
2021/01/29 09:05:10;;;;;;;0.50;0.10;;;7.60;99.90;;;8.68;77.89;93135.03;5022082;28;20271;-72
2021/01/29 09:07:43;;;;;;;0.00;0.00;;;7.60;99.90;;;8.69;77.56;93127.91;5012041;28;20180;-72
2021/01/29 09:10:54;;;;;;;0.00;0.00;;;7.60;99.90;;;8.70;77.75;93138.19;5005668;28;20577;-73
2021/01/29 09:13:23;;;;;;;0.00;0.00;;;7.60;99.90;;;8.74;78.02;93122.59;5025478;28;20679;-72
2021/01/29 09:16:09;;;;;;;0.17;0.07;;;7.60;99.90;;;8.74;77.36;93138.44;5005228;28;20173;-74
2021/01/29 09:19:02;;;;;;;0.10;0.00;;;7.70;99.90;;;8.76;77.36;93138.97;5026150;28;20180;-73
2021/01/29 09:21:52;;;;;;;0.00;0.00;;;7.70;99.90;;;8.71;77.54;93126.56;5007806;28;20182;-73
2021/01/29 09:25:10;;;;;;;0.43;0.10;;;7.70;99.90;;;8.79;77.27;93146.34;5015720;28;20657;-74
2021/01/29 09:27:54;;;;;;;0.23;0.10;;;7.70;99.90;;;8.82;77.49;93159.00;5018735;28;20180;-74
2021/01/29 09:30:38;;;;;;;0.10;0.03;;;7.70;99.90;;;9.04;77.73;93170.00;5012200;28;20207;-74
2021/01/29 09:33:34;;;;;;;0.17;0.10;;;7.90;99.90;;;9.19;76.94;93169.91;5029138;28;20266;-74
2021/01/29 09:36:18;;;;;;;0.23;0.10;;;8.10;99.90;;;9.21;77.25;93177.56;5019437;28;20226;-72
2021/01/29 09:39:04;;;;;;;0.30;0.10;;;8.10;99.90;;;9.08;77.25;93178.16;5010783;28;20189;-72
2021/01/29 09:41:36;;;;;;;0.20;0.10;;;8.10;99.90;;;9.01;76.83;93178.47;5001447;28;20266;-73
2021/01/29 09:44:25;;;;;;;0.10;0.10;;;8.00;99.90;;;9.02;76.75;93185.34;5027600;28;20185;-73
2021/01/29 09:47:00;;;;;;;0.20;0.10;;;8.00;99.90;;;8.99;77.68;93179.81;5019082;28;20224;-73
2021/01/29 09:49:30;;;;;;;0.60;0.20;;;8.00;99.90;;;8.93;76.99;93194.88;5028514;28;20187;-72
2021/01/29 09:51:59;;;;;;;0.20;0.10;;;7.90;99.90;;;8.94;76.58;93193.81;5023041;28;20176;-73
2021/01/29 09:54:38;;;;;;;0.00;0.00;;;7.90;99.90;;;8.91;77.07;93178.50;5022271;28;20203;-74
2021/01/29 09:57:30;;;;;;;0.13;0.10;;;7.90;99.90;;;8.82;76.70;93180.16;5016905;28;20709;-74
2021/01/29 10:00:13;;;;;;;0.20;0.10;;;7.80;99.90;;;8.75;77.08;93180.44;5016237;28;20183;-74
2021/01/29 10:03:04;;;;;;;0.47;0.00;;;7.70;99.90;;;8.69;76.75;93196.59;5030587;28;20234;-72
2021/01/29 10:05:46;;;;;;;0.10;0.00;;;7.70;99.90;;;8.70;76.79;93198.16;5021526;28;20540;-71
2021/01/29 10:08:32;;;;;;;0.27;0.00;;;7.70;99.90;;;8.77;76.39;93182.78;5008698;28;20261;-72
2021/01/29 10:11:05;;;;;;;0.67;0.50;;;7.70;99.90;;;8.76;76.37;93179.38;5015026;28;20661;-72
2021/01/29 10:14:00;;;;;;;0.77;0.20;;;7.70;99.90;;;8.78;76.60;93192.31;5024094;28;20549;-72
2021/01/29 10:16:58;;;;;;;0.60;0.20;;;7.70;99.90;;;8.82;76.33;93195.22;5024836;28;20172;-74
2021/01/29 10:19:39;;;;;;;0.37;0.00;;;7.80;99.90;;;8.91;76.38;93204.16;5029351;28;20222;-72
2021/01/29 10:22:22;;;;;;;0.37;0.00;;;7.80;99.90;;;9.03;76.56;93202.75;5018469;28;20214;-72
2021/01/29 10:25:03;;;;;;;0.20;0.17;;;7.90;99.90;;;9.26;76.40;93196.06;5027786;28;20181;-73
2021/01/29 10:28:17;;;;;;;0.00;0.00;;;8.10;99.90;;;9.59;76.34;93210.38;5019342;28;20685;-73
2021/01/29 10:31:05;;;;;;;0.73;0.10;;;8.40;99.90;;;9.87;76.21;93212.28;5018595;28;20229;-72
2021/01/29 10:33:36;;;;;;;0.30;0.10;;;8.70;99.90;;;10.32;76.30;93208.50;5001783;28;20204;-73
2021/01/29 10:36:27;;;;;;;0.23;0.10;;;9.10;99.90;;;10.39;76.35;93184.31;5020291;28;20223;-73
2021/01/29 10:39:05;;;;;;;0.83;0.20;;;9.30;99.90;;;10.10;75.95;93184.31;5022573;28;20181;-72
2021/01/29 10:42:08;;;;;;;1.03;0.10;;;9.20;99.90;;;9.62;76.12;93189.47;5009235;28;20184;-71
2021/01/29 10:44:36;;;;;;;0.53;0.17;;;8.80;99.90;;;9.42;75.83;93178.22;5001424;28;20180;-73
2021/01/29 10:47:37;;;;;;;0.40;0.10;;;8.50;99.90;;;9.07;75.65;93190.59;5011449;28;20277;-73
2021/01/29 10:50:43;;;;;;;0.67;0.13;;;8.30;99.90;;;8.67;75.72;93196.03;5011181;28;20231;-73
2021/01/29 10:53:20;;;;;;;0.20;0.10;;;7.90;99.90;;;8.44;75.58;93197.44;5007680;28;20747;-72
2021/01/29 10:56:11;;;;;;;0.40;0.10;;;7.60;99.90;;;8.34;75.62;93194.03;5010734;28;20234;-72
2021/01/29 10:59:10;;;;;;;0.07;0.00;;;7.40;99.90;;;8.33;75.75;93184.56;5011648;28;20272;-72
2021/01/29 11:01:54;;;;;;;0.00;0.00;;;7.40;99.90;;;8.28;75.02;93172.16;4995770;28;20217;-70
2021/01/29 11:04:26;;;;;;;0.77;0.10;;;7.30;99.90;;;8.11;75.78;93172.41;4995490;28;20206;-72
2021/01/29 11:07:04;;;;;;;0.50;0.10;;;7.20;99.90;;;8.00;75.34;93178.75;4986763;28;20210;-74
2021/01/29 11:09:39;;;;;;;0.20;0.10;;;7.10;99.90;;;7.90;75.74;93185.88;5026501;28;20203;-73
2021/01/29 11:12:56;;;;;;;1.50;0.10;;;7.00;99.90;;;7.86;75.60;93195.38;5012565;28;20194;-70
2021/01/29 11:15:26;;;;;;;1.03;0.10;;;6.90;99.90;;;7.71;75.41;93215.44;4949197;28;20208;-72
2021/01/29 11:18:35;;;;;;;0.27;0.10;;;6.80;99.90;;;7.63;75.76;93225.72;4919096;29;20796;-72
2021/01/29 11:21:45;;;;;;;1.20;0.25;;;6.70;99.90;;;7.39;75.89;93238.59;4946778;29;20455;-68
2021/01/29 11:24:36;;;;;;;0.57;0.20;;;6.60;99.90;;;7.30;75.35;93213.03;4946692;29;20199;-70
2021/01/29 11:27:22;;;;;;;1.77;0.30;;;6.40;99.90;;;7.28;74.92;93196.69;4943441;29;20217;-71
2021/01/29 11:30:00;;;;;;;0.53;0.10;;;6.40;99.90;;;7.33;75.24;93205.38;4949683;29;20823;-71
2021/01/29 11:32:34;;;;;;;0.20;0.20;;;6.40;99.90;;;7.21;75.50;93186.41;4932611;29;20841;-71
2021/01/29 11:35:39;;;;;;;1.67;0.37;;;6.30;99.90;;;7.27;75.53;93192.47;4933949;29;20232;-71
2021/01/29 11:38:10;;;;;;;2.63;0.40;;;6.30;99.90;;;7.19;75.73;93178.75;4943270;29;20263;-70
2021/01/29 11:40:52;;;;;;;0.57;0.27;;;6.20;99.90;;;7.22;75.87;93177.41;4928305;29;20231;-71
2021/01/29 11:43:31;;;;;;;0.50;0.23;;;6.30;99.90;;;7.06;75.85;93215.34;4946938;29;20219;-70
2021/01/29 11:46:25;;;;;;;1.47;0.30;;;6.20;99.90;;;7.03;76.03;93237.72;4922644;29;20255;-70
2021/01/29 11:49:29;;;;;;;0.40;0.20;;;6.10;99.90;;;6.67;75.97;93192.03;4929285;29;20211;-70
2021/01/29 11:52:26;;;;;;;0.67;0.23;;;5.90;99.90;;;6.71;75.92;93189.69;5011644;28;20231;-70
2021/01/29 11:55:15;;;;;;;1.47;0.23;;;5.80;99.90;;;6.75;75.86;93187.34;5012978;28;20222;-69
2021/01/29 11:58:06;;;;;;;0.33;0.10;;;5.80;99.90;;;6.76;75.42;93200.22;5007713;28;20225;-70